createdAt,value
2019-05-09T00:02:30.412Z,99.90
2019-05-09T00:05:00.454Z,99.90
2019-05-09T00:07:30.458Z,99.90
2019-05-09T00:10:00.500Z,99.90
2019-05-09T00:12:30.749Z,99.90
2019-05-09T00:15:04.409Z,99.90
2019-05-09T00:17:34.353Z,99.90
2019-05-09T00:20:13.636Z,99.90
2019-05-09T00:22:43.621Z,99.90
2019-05-09T00:25:13.645Z,99.90
2019-05-09T00:27:43.644Z,99.90
2019-05-09T00:30:16.006Z,99.90
2019-05-09T00:32:46.198Z,99.90
2019-05-09T00:35:25.078Z,99.90
2019-05-09T00:38:00.538Z,99.90
2019-05-09T00:40:30.725Z,99.90
2019-05-09T00:43:00.606Z,99.90
2019-05-09T00:45:49.616Z,99.90
2019-05-09T00:48:23.199Z,99.90
2019-05-09T00:50:54.453Z,99.90
2019-05-09T00:53:24.453Z,99.90
2019-05-09T00:55:54.374Z,99.90
2019-05-09T00:58:24.605Z,99.90
2019-05-09T01:00:54.747Z,99.90
2019-05-09T01:03:24.773Z,99.90
2019-05-09T01:05:54.661Z,99.90
2019-05-09T01:08:24.522Z,99.90
2019-05-09T01:11:08.210Z,99.90
2019-05-09T01:13:25.944Z,99.90
2019-05-09T01:15:55.860Z,99.90
2019-05-09T01:18:25.751Z,99.90
2019-05-09T01:20:55.887Z,99.90
2019-05-09T01:23:25.833Z,99.90
2019-05-09T01:25:55.688Z,99.90
2019-05-09T01:28:25.614Z,99.90
2019-05-09T01:30:55.521Z,99.90
2019-05-09T01:33:43.807Z,99.90
2019-05-09T01:36:15.950Z,99.90
2019-05-09T01:38:47.263Z,99.90
2019-05-09T01:41:27.895Z,99.90
2019-05-09T01:43:49.892Z,99.90
2019-05-09T01:46:20.008Z,99.90
2019-05-09T01:48:49.916Z,99.90
2019-05-09T01:51:20.012Z,99.90
2019-05-09T01:53:54.946Z,99.90
2019-05-09T01:56:24.929Z,99.90
2019-05-09T01:58:54.931Z,99.90
2019-05-09T02:01:24.882Z,99.90
2019-05-09T02:03:54.876Z,99.90
2019-05-09T02:06:28.622Z,99.90
2019-05-09T02:08:58.577Z,99.90
2019-05-09T02:11:40.173Z,99.90
2019-05-09T02:14:00.539Z,99.90
2019-05-09T02:16:48.143Z,99.90
2019-05-09T02:19:25.361Z,99.90
2019-05-09T02:21:55.667Z,99.90
2019-05-09T02:24:25.652Z,99.90
2019-05-09T02:26:55.676Z,99.90
2019-05-09T02:29:25.827Z,99.90
2019-05-09T02:31:55.757Z,99.90
2019-05-09T02:34:25.630Z,99.90
2019-05-09T02:36:58.442Z,99.90
2019-05-09T02:39:29.465Z,99.90
2019-05-09T02:42:08.443Z,99.90
2019-05-09T02:44:30.485Z,99.90
2019-05-09T02:47:09.003Z,99.90
2019-05-09T02:49:39.162Z,99.90
2019-05-09T02:52:09.789Z,99.90
2019-05-09T02:54:39.819Z,99.90
2019-05-09T02:57:09.971Z,99.90
2019-05-09T03:00:00.065Z,99.90
2019-05-09T03:03:09.197Z,99.90
2019-05-09T03:05:39.216Z,99.90
2019-05-09T03:08:09.794Z,99.90
2019-05-09T03:10:39.894Z,99.90
2019-05-09T03:13:10.249Z,99.90
2019-05-09T03:15:40.685Z,99.90
2019-05-09T03:18:10.672Z,99.90
2019-05-09T03:20:58.627Z,99.90
2019-05-09T03:23:28.845Z,99.90
2019-05-09T03:25:59.272Z,99.90
2019-05-09T03:28:50.772Z,99.90
2019-05-09T03:31:22.097Z,99.90
2019-05-09T03:33:52.031Z,99.90
2019-05-09T03:36:21.952Z,99.90
2019-05-09T03:38:51.912Z,99.90
2019-05-09T03:41:21.824Z,99.90
2019-05-09T03:43:51.756Z,99.90
2019-05-09T03:46:28.281Z,99.90
2019-05-09T03:48:59.575Z,99.90
2019-05-09T03:51:29.540Z,99.90
2019-05-09T03:53:59.550Z,99.90
2019-05-09T03:56:34.263Z,99.90
2019-05-09T03:59:04.721Z,99.90
2019-05-09T04:01:35.032Z,99.90
2019-05-09T04:04:05.023Z,99.90
2019-05-09T04:06:35.277Z,99.90
2019-05-09T04:09:07.543Z,99.90
2019-05-09T04:11:38.257Z,99.90
2019-05-09T04:14:12.596Z,99.90
2019-05-09T04:16:42.830Z,99.90
2019-05-09T04:19:12.832Z,99.90
2019-05-09T04:21:43.348Z,99.90
2019-05-09T04:24:13.552Z,99.90
2019-05-09T04:26:58.473Z,99.90
2019-05-09T04:29:28.713Z,99.90
2019-05-09T04:31:58.848Z,99.90
2019-05-09T04:34:29.145Z,99.90
2019-05-09T04:36:59.390Z,99.90
2019-05-09T04:39:29.525Z,99.90
2019-05-09T04:42:05.233Z,99.90
2019-05-09T04:44:37.466Z,99.90
2019-05-09T04:47:08.758Z,99.90
2019-05-09T04:49:44.991Z,99.90
2019-05-09T04:52:10.949Z,99.90
2019-05-09T04:54:41.070Z,99.90
2019-05-09T04:57:11.660Z,99.90
2019-05-09T04:59:41.552Z,99.90
2019-05-09T05:02:27.588Z,99.90
2019-05-09T05:04:58.743Z,99.90
2019-05-09T05:07:30.403Z,99.90
2019-05-09T05:10:00.541Z,99.90
2019-05-09T05:12:30.520Z,99.90
2019-05-09T05:15:00.570Z,99.90
2019-05-09T05:17:30.889Z,99.90
2019-05-09T05:20:01.732Z,99.90
2019-05-09T05:22:44.985Z,99.90
2019-05-09T05:25:13.844Z,99.90
2019-05-09T05:27:42.888Z,99.90
2019-05-09T05:30:11.836Z,99.90
2019-05-09T05:33:00.509Z,99.90
2019-05-09T05:35:51.837Z,99.90
2019-05-09T05:38:20.740Z,99.90
2019-05-09T05:40:50.820Z,99.90
2019-05-09T05:43:19.675Z,99.90
2019-05-09T05:46:10.524Z,99.90
2019-05-09T05:48:39.970Z,99.90
2019-05-09T05:51:10.799Z,99.90
2019-05-09T05:53:39.796Z,99.90
2019-05-09T05:56:08.758Z,99.90
2019-05-09T05:58:38.627Z,99.90
2019-05-09T06:01:08.359Z,99.90
2019-05-09T06:03:37.752Z,99.90
2019-05-09T06:06:08.786Z,99.90
2019-05-09T06:08:38.137Z,99.90
2019-05-09T06:11:11.792Z,99.90
2019-05-09T06:13:38.046Z,99.90
2019-05-09T06:16:08.786Z,99.90
2019-05-09T06:18:40.640Z,99.90
2019-05-09T06:21:09.502Z,99.90
2019-05-09T06:23:38.404Z,99.90
2019-05-09T06:26:09.953Z,99.90
2019-05-09T06:28:37.885Z,99.90
2019-05-09T06:31:07.607Z,99.90
2019-05-09T06:33:44.961Z,99.90
2019-05-09T06:36:08.011Z,99.90
2019-05-09T06:38:37.783Z,99.90
2019-05-09T06:41:08.871Z,99.90
2019-05-09T06:43:39.522Z,99.90
2019-05-09T06:46:22.100Z,99.90
2019-05-09T06:48:51.145Z,99.90
2019-05-09T06:51:21.372Z,99.90
2019-05-09T06:53:50.399Z,99.90
2019-05-09T06:56:19.241Z,99.90
2019-05-09T06:58:48.255Z,99.90
2019-05-09T07:01:48.509Z,99.90
2019-05-09T07:04:47.577Z,99.90
2019-05-09T07:07:48.194Z,99.90
2019-05-09T07:10:21.907Z,93.70
2019-05-09T07:12:51.076Z,84.30
2019-05-09T07:15:23.130Z,75.20
2019-05-09T07:17:54.855Z,75.70
2019-05-09T07:20:28.501Z,76.40
2019-05-09T07:23:00.437Z,72.40
2019-05-09T07:26:03.691Z,71.90
2019-05-09T07:28:31.019Z,72.20
2019-05-09T07:31:18.044Z,73.20
2019-05-09T07:34:01.819Z,75.10
2019-05-09T07:36:38.513Z,71.60
2019-05-09T07:39:09.161Z,71.00
2019-05-09T07:41:38.497Z,73.10
2019-05-09T07:44:10.400Z,73.70
2019-05-09T07:46:58.004Z,77.20
2019-05-09T07:49:29.312Z,78.70
2019-05-09T07:52:06.593Z,82.20
2019-05-09T07:54:32.892Z,84.10
2019-05-09T07:57:01.768Z,86.60
2019-05-09T07:59:30.676Z,90.00
2019-05-09T08:01:59.648Z,91.30
2019-05-09T08:04:28.863Z,92.20
2019-05-09T08:06:58.029Z,93.60
2019-05-09T08:09:28.106Z,94.60
2019-05-09T08:12:00.756Z,94.80
2019-05-09T08:14:29.736Z,93.80
2019-05-09T08:16:58.648Z,91.80
2019-05-09T08:19:29.169Z,90.40
2019-05-09T08:21:58.000Z,80.90
2019-05-09T08:24:32.265Z,75.00
2019-05-09T08:26:58.243Z,72.50
2019-05-09T08:29:28.156Z,69.80
2019-05-09T08:31:58.244Z,70.20
2019-05-09T08:34:28.504Z,72.10
2019-05-09T08:36:58.185Z,74.10
2019-05-09T08:39:27.880Z,73.00
2019-05-09T08:41:59.203Z,70.50
2019-05-09T08:44:30.209Z,57.60
2019-05-09T08:46:58.627Z,48.40
2019-05-09T08:49:37.322Z,36.30
2019-05-09T08:52:16.131Z,32.00
2019-05-09T08:54:50.295Z,32.40
2019-05-09T08:57:19.291Z,33.10
2019-05-09T08:59:50.661Z,39.40
2019-05-09T09:02:22.846Z,43.40
2019-05-09T09:04:51.742Z,44.50
2019-05-09T09:07:20.629Z,45.40
2019-05-09T09:09:49.679Z,47.40
2019-05-09T09:12:29.423Z,49.60
2019-05-09T09:14:49.265Z,54.00
2019-05-09T09:17:18.809Z,54.30
2019-05-09T09:19:48.211Z,50.80
2019-05-09T09:22:17.959Z,51.90
2019-05-09T09:24:48.320Z,55.00
2019-05-09T09:27:18.193Z,60.00
2019-05-09T09:29:54.599Z,62.30
2019-05-09T09:32:23.553Z,63.40
2019-05-09T09:34:52.796Z,65.20
2019-05-09T09:37:23.947Z,63.80
2019-05-09T09:39:58.227Z,58.30
2019-05-09T09:42:28.245Z,47.40
2019-05-09T09:44:58.697Z,36.80
2019-05-09T09:47:30.140Z,30.80
2019-05-09T09:50:04.094Z,29.50
2019-05-09T09:52:38.457Z,28.90
2019-05-09T09:55:09.058Z,29.10
2019-05-09T09:57:38.165Z,35.30
2019-05-09T10:00:25.997Z,40.10
2019-05-09T10:02:54.940Z,43.60
2019-05-09T10:05:23.870Z,49.30
2019-05-09T10:07:52.748Z,54.90
2019-05-09T10:10:32.689Z,58.20
2019-05-09T10:13:04.042Z,61.10
2019-05-09T10:15:38.424Z,58.30
2019-05-09T10:18:27.570Z,44.80
2019-05-09T10:21:05.043Z,34.10
2019-05-09T10:23:33.973Z,27.80
2019-05-09T10:26:03.117Z,26.80
2019-05-09T10:28:37.839Z,28.90
2019-05-09T10:31:06.129Z,28.40
2019-05-09T10:33:37.504Z,28.90
2019-05-09T10:36:08.538Z,30.90
2019-05-09T10:38:39.776Z,32.30
2019-05-09T10:41:11.359Z,34.70
2019-05-09T10:44:08.309Z,40.50
2019-05-09T10:46:56.760Z,41.20
2019-05-09T10:49:21.671Z,38.40
2019-05-09T10:51:51.528Z,38.60
2019-05-09T10:54:20.633Z,41.20
2019-05-09T10:56:51.484Z,46.60
2019-05-09T10:59:20.921Z,52.60
2019-05-09T11:01:51.288Z,56.10
2019-05-09T11:04:20.274Z,57.10
2019-05-09T11:06:49.280Z,56.60
2019-05-09T11:09:18.483Z,56.40
2019-05-09T11:11:48.499Z,54.90
2019-05-09T11:14:32.545Z,56.20
2019-05-09T11:16:54.283Z,58.00
2019-05-09T11:19:25.058Z,59.10
2019-05-09T11:21:58.474Z,57.80
2019-05-09T11:24:57.762Z,53.70
2019-05-09T11:28:06.847Z,53.20
2019-05-09T11:31:20.151Z,54.00
2019-05-09T11:33:54.541Z,52.60
2019-05-09T11:36:32.819Z,54.90
2019-05-09T11:39:41.787Z,55.60
2019-05-09T11:42:06.848Z,57.50
2019-05-09T11:44:38.523Z,59.80
2019-05-09T11:47:28.623Z,61.20
2019-05-09T11:50:18.985Z,60.20
2019-05-09T11:53:11.459Z,63.40
2019-05-09T11:55:58.601Z,64.40
2019-05-09T12:02:14.921Z,69.40
2019-05-09T12:04:48.987Z,68.40
2019-05-09T12:07:38.713Z,68.10
2019-05-09T12:10:29.011Z,66.50
2019-05-09T12:17:05.316Z,64.00
2019-05-09T12:22:19.147Z,66.60
2019-05-09T12:24:48.145Z,65.30
2019-05-09T12:27:18.903Z,68.00
2019-05-09T12:29:48.407Z,68.20
2019-05-09T12:32:18.807Z,68.20
2019-05-09T12:34:49.556Z,65.20
2019-05-09T12:37:18.454Z,63.50
2019-05-09T12:39:50.583Z,61.70
2019-05-09T12:42:19.708Z,61.00
2019-05-09T12:44:49.659Z,61.50
2019-05-09T12:47:22.877Z,60.30
2019-05-09T12:50:00.392Z,63.30
2019-05-09T12:52:28.605Z,61.70
2019-05-09T12:54:58.281Z,61.50
2019-05-09T13:03:38.023Z,59.30
2019-05-09T13:06:20.152Z,58.10
2019-05-09T13:08:59.810Z,59.00
2019-05-09T13:11:33.754Z,58.30
2019-05-09T13:14:09.941Z,56.90
2019-05-09T13:16:53.833Z,55.60
2019-05-09T13:19:24.233Z,57.50
2019-05-09T13:22:04.533Z,57.20
2019-05-09T13:24:34.813Z,55.60
2019-05-09T13:27:04.010Z,55.20
2019-05-09T13:29:38.083Z,55.20
2019-05-09T13:32:08.817Z,56.70
2019-05-09T13:34:38.277Z,57.50
2019-05-09T13:37:09.091Z,58.70
2019-05-09T13:39:39.921Z,59.00
2019-05-09T13:42:09.105Z,58.40
2019-05-09T13:45:13.225Z,58.30
2019-05-09T13:47:28.055Z,58.10
2019-05-09T13:49:59.314Z,57.30
2019-05-09T13:52:28.458Z,57.20
2019-05-09T13:54:59.288Z,57.30
2019-05-09T13:57:31.387Z,59.00
2019-05-09T14:00:04.173Z,59.30
2019-05-09T14:02:33.239Z,58.70
2019-05-09T14:05:09.283Z,58.70
2019-05-09T14:07:54.441Z,59.60
2019-05-09T14:10:20.709Z,60.60
2019-05-09T14:13:05.545Z,61.40
2019-05-09T14:15:27.402Z,61.00
2019-05-09T14:17:54.520Z,61.00
2019-05-09T14:20:24.075Z,62.30
2019-05-09T14:22:57.594Z,62.30
2019-05-09T14:25:29.090Z,61.60
2019-05-09T14:28:14.674Z,60.90
2019-05-09T14:30:51.550Z,59.50
2019-05-09T14:33:20.597Z,57.70
2019-05-09T14:35:49.740Z,57.20
2019-05-09T14:38:39.301Z,57.90
2019-05-09T14:41:12.094Z,58.60
2019-05-09T14:43:43.629Z,59.00
2019-05-09T14:46:14.860Z,60.50
2019-05-09T14:48:45.028Z,58.70
2019-05-09T14:51:14.170Z,58.80
2019-05-09T14:54:08.334Z,59.70
2019-05-09T14:56:41.805Z,58.00
2019-05-09T14:59:14.216Z,56.10
2019-05-09T15:01:46.026Z,55.70
2019-05-09T15:04:18.949Z,56.10
2019-05-09T15:06:48.838Z,56.60
2019-05-09T15:09:18.459Z,57.50
2019-05-09T15:11:48.511Z,58.40
2019-05-09T15:14:19.075Z,57.60
2019-05-09T15:16:50.815Z,58.30
2019-05-09T15:19:22.789Z,59.80
2019-05-09T15:21:52.532Z,60.10
2019-05-09T15:24:21.412Z,60.30
2019-05-09T15:26:54.602Z,60.70
2019-05-09T15:29:25.066Z,61.50
2019-05-09T15:32:20.136Z,62.50
2019-05-09T15:34:49.069Z,62.50
2019-05-09T15:37:51.548Z,61.40
2019-05-09T15:40:20.655Z,62.00
2019-05-09T15:43:00.428Z,62.50
2019-05-09T15:45:29.753Z,63.60
2019-05-09T15:47:58.752Z,64.40
2019-05-09T15:50:30.660Z,65.30
2019-05-09T15:53:01.813Z,65.70
2019-05-09T15:55:31.535Z,65.60
2019-05-09T15:58:00.670Z,65.90
2019-05-09T16:00:30.008Z,66.70
2019-05-09T16:03:07.816Z,67.80
2019-05-09T16:05:39.883Z,69.10
2019-05-09T16:08:11.548Z,69.50
2019-05-09T16:10:52.160Z,69.10
2019-05-09T16:13:23.683Z,69.70
2019-05-09T16:15:57.332Z,69.80
2019-05-09T16:18:28.832Z,70.30
2019-05-09T16:20:58.127Z,70.60
2019-05-09T16:23:29.031Z,70.70
2019-05-09T16:25:58.724Z,71.00
2019-05-09T16:28:27.760Z,71.80
2019-05-09T16:30:58.581Z,71.10
2019-05-09T16:33:27.966Z,71.10
2019-05-09T16:35:57.330Z,71.60
2019-05-09T16:38:42.172Z,71.70
2019-05-09T16:41:10.647Z,71.40
2019-05-09T16:43:43.371Z,72.40
2019-05-09T16:46:12.505Z,72.60
2019-05-09T16:48:41.455Z,73.30
2019-05-09T16:51:10.872Z,74.30
2019-05-09T16:53:51.466Z,74.90
2019-05-09T16:56:20.317Z,74.80
2019-05-09T16:58:57.835Z,75.10
2019-05-09T17:01:31.173Z,75.60
2019-05-09T17:04:03.214Z,76.20
2019-05-09T17:06:40.163Z,76.40
2019-05-09T17:09:18.172Z,76.50
2019-05-09T17:14:46.357Z,76.80
2019-05-09T17:17:27.844Z,77.90
2019-05-09T17:20:14.795Z,76.70
2019-05-09T17:23:13.756Z,77.30
2019-05-09T17:25:40.073Z,78.00
2019-05-09T17:28:12.891Z,78.30
2019-05-09T17:30:52.809Z,78.20
2019-05-09T17:33:34.829Z,78.40
2019-05-09T17:36:07.429Z,79.20
2019-05-09T17:38:47.853Z,79.30
2019-05-09T17:41:20.367Z,78.90
2019-05-09T17:44:07.705Z,78.90
2019-05-09T17:46:41.650Z,79.50
2019-05-09T17:49:20.724Z,78.40
2019-05-09T17:51:50.088Z,79.00
2019-05-09T17:54:21.789Z,78.70
2019-05-09T17:56:57.337Z,78.30
2019-05-09T17:59:28.952Z,78.50
2019-05-09T18:01:58.048Z,79.60
2019-05-09T18:04:37.885Z,80.10
2019-05-09T18:07:23.516Z,80.50
2019-05-09T18:09:58.434Z,80.80
2019-05-09T18:12:38.254Z,81.70
2019-05-09T18:15:28.097Z,81.90
2019-05-09T18:17:58.911Z,82.10
2019-05-09T18:20:28.519Z,82.60
2019-05-09T18:23:08.242Z,83.70
2019-05-09T18:25:40.927Z,84.30
2019-05-09T18:28:17.524Z,84.50
2019-05-09T18:30:47.780Z,85.30
2019-05-09T18:33:23.198Z,86.00
2019-05-09T18:35:58.553Z,86.40
2019-05-09T18:38:32.198Z,87.60
2019-05-09T18:41:07.049Z,87.90
2019-05-09T18:43:35.985Z,88.60
2019-05-09T18:46:05.206Z,89.30
2019-05-09T18:48:34.464Z,89.50
2019-05-09T18:51:16.939Z,90.20
2019-05-09T18:53:51.061Z,90.20
2019-05-09T18:56:22.033Z,90.60
2019-05-09T18:58:51.374Z,91.00
2019-05-09T19:01:20.438Z,91.20
2019-05-09T19:03:58.234Z,91.30
2019-05-09T19:06:30.228Z,91.50
2019-05-09T19:08:59.203Z,91.80
2019-05-09T19:11:33.459Z,92.20
2019-05-09T19:14:06.221Z,92.70
2019-05-09T19:16:58.782Z,93.00
2019-05-09T19:19:46.257Z,93.40
2019-05-09T19:22:22.269Z,93.80
2019-05-09T19:24:48.140Z,94.30
2019-05-09T19:27:20.121Z,94.70
2019-05-09T19:29:49.386Z,95.00
2019-05-09T19:32:18.415Z,95.40
2019-05-09T19:34:47.560Z,95.90
2019-05-09T19:37:17.407Z,96.20
2019-05-09T19:39:47.501Z,96.30
2019-05-09T19:42:17.606Z,96.60
2019-05-09T19:44:47.609Z,96.90
2019-05-09T19:47:19.948Z,97.10
2019-05-09T19:49:49.924Z,97.50
2019-05-09T19:52:37.767Z,97.80
2019-05-09T19:55:02.538Z,98.10
2019-05-09T19:57:32.558Z,98.50
2019-05-09T20:00:02.792Z,98.80
2019-05-09T20:02:35.513Z,99.20
2019-05-09T20:05:07.288Z,99.80
2019-05-09T20:07:38.581Z,99.90
2019-05-09T20:10:26.644Z,99.90
2019-05-09T20:13:14.355Z,99.90
2019-05-09T20:15:49.111Z,99.90
2019-05-09T20:18:20.830Z,99.90
2019-05-09T20:20:51.437Z,99.90
2019-05-09T20:23:22.094Z,99.90
2019-05-09T20:26:05.679Z,99.90
2019-05-09T20:28:37.346Z,99.90
2019-05-09T20:31:06.817Z,99.90
2019-05-09T20:33:46.226Z,99.90
2019-05-09T20:36:19.888Z,99.90
2019-05-09T20:38:52.144Z,99.90
2019-05-09T20:41:29.569Z,99.90
2019-05-09T20:44:06.828Z,99.90
2019-05-09T20:46:39.156Z,99.90
2019-05-09T20:49:19.693Z,99.90
2019-05-09T20:51:56.868Z,99.90
2019-05-09T20:54:31.690Z,99.90
2019-05-09T20:57:02.181Z,99.90
2019-05-09T20:59:32.810Z,99.90
2019-05-09T21:02:03.445Z,99.90
2019-05-09T21:04:36.848Z,99.90
2019-05-09T21:07:07.776Z,99.90
2019-05-09T21:09:41.163Z,99.90
2019-05-09T21:12:16.345Z,99.90
2019-05-09T21:14:49.671Z,99.90
2019-05-09T21:17:19.859Z,99.90
2019-05-09T21:19:50.001Z,99.90
2019-05-09T21:22:20.375Z,99.90
2019-05-09T21:24:55.937Z,99.90
2019-05-09T21:27:23.688Z,99.90
2019-05-09T21:29:57.778Z,99.90
2019-05-09T21:32:28.126Z,99.90
2019-05-09T21:34:58.354Z,99.90
2019-05-09T21:37:28.563Z,99.90
2019-05-09T21:39:58.475Z,99.90
2019-05-09T21:42:28.365Z,99.90
2019-05-09T21:44:58.475Z,99.90
2019-05-09T21:47:28.843Z,99.90
2019-05-09T21:49:59.198Z,99.90
2019-05-09T21:52:29.168Z,99.90
2019-05-09T21:54:59.306Z,99.90
2019-05-09T21:57:29.353Z,99.90
2019-05-09T21:59:59.306Z,99.90
2019-05-09T22:02:34.013Z,99.90
2019-05-09T22:05:05.416Z,99.90
2019-05-09T22:07:35.471Z,99.90
2019-05-09T22:10:06.783Z,99.90
2019-05-09T22:12:37.357Z,99.90
2019-05-09T22:15:07.924Z,99.90
2019-05-09T22:17:38.899Z,99.90
2019-05-09T22:20:09.903Z,99.90
2019-05-09T22:22:39.787Z,99.90
2019-05-09T22:25:10.611Z,99.90
2019-05-09T22:27:40.908Z,99.90
2019-05-09T22:30:13.639Z,99.90
2019-05-09T22:32:43.748Z,99.90
2019-05-09T22:35:14.981Z,99.90
2019-05-09T22:37:45.041Z,99.90
2019-05-09T22:40:15.622Z,99.90
2019-05-09T22:42:45.581Z,99.90
2019-05-09T22:45:15.991Z,99.90
2019-05-09T22:47:45.915Z,99.90
2019-05-09T22:50:15.893Z,99.90
2019-05-09T22:52:45.842Z,99.90
2019-05-09T22:55:16.424Z,99.90
2019-05-09T22:57:49.096Z,99.90
2019-05-09T23:00:19.513Z,99.90
2019-05-09T23:02:52.614Z,99.90
2019-05-09T23:05:23.090Z,99.90
2019-05-09T23:07:53.977Z,99.90
2019-05-09T23:10:25.157Z,99.90
2019-05-09T23:12:56.707Z,99.90
2019-05-09T23:15:27.050Z,99.90
2019-05-09T23:17:57.124Z,99.90
2019-05-09T23:20:46.673Z,99.90
2019-05-09T23:23:34.524Z,99.90
2019-05-09T23:26:04.511Z,99.90
2019-05-09T23:28:34.484Z,99.90
2019-05-09T23:31:07.853Z,99.90
2019-05-09T23:33:39.956Z,99.90
2019-05-09T23:36:09.929Z,99.90
2019-05-09T23:38:57.890Z,99.90
2019-05-09T23:41:27.758Z,99.90
2019-05-09T23:43:57.653Z,99.90
2019-05-09T23:46:27.591Z,99.90
2019-05-09T23:48:57.594Z,99.90
2019-05-09T23:51:44.875Z,99.90
2019-05-09T23:54:45.148Z,99.90
2019-05-09T23:57:24.222Z,99.90
